Time;durP1;ratioP1;P1;durP2;ratioP2;P2;SDS_P1;SDS_P2;PMS_P1;PMS_P2;Temp;Humidity;BMP_temperature;BMP_pressure;BME280_temperature;BME280_humidity;BME280_pressure;Samples;Min_cycle;Max_cycle;Signal;HPM_P1;HPM_P2
2023/10/16 00:01:09;;;;;;;4.20;1.20;;;;;;;8.53;84.24;100781.29;107589;1251;108793;-60
2023/10/16 00:03:42;;;;;;;2.20;1.00;;;;;;;8.52;83.50;100785.12;107622;1254;97884;-61
2023/10/16 00:06:12;;;;;;;10.90;5.30;;;;;;;8.49;82.96;100784.12;107636;1252;98560;-62
2023/10/16 00:08:47;;;;;;;4.00;1.50;;;;;;;8.50;83.05;100791.21;107632;1253;110472;-60
2023/10/16 00:11:22;;;;;;;1.40;0.70;;;;;;;8.51;82.62;100791.11;107614;1251;109647;-63
2023/10/16 00:13:52;;;;;;;4.10;0.90;;;;;;;8.49;82.05;100791.27;107559;1256;107580;-62
2023/10/16 00:16:23;;;;;;;4.00;0.70;;;;;;;8.41;81.54;100790.08;107561;1256;97740;-62
2023/10/16 00:18:53;;;;;;;3.90;0.90;;;;;;;8.37;81.40;100798.22;107606;1256;97704;-61
2023/10/16 00:21:24;;;;;;;3.30;0.80;;;;;;;8.33;80.95;100806.80;107645;1255;111214;-61
2023/10/16 00:23:54;;;;;;;1.00;0.40;;;;;;;8.29;80.89;100813.35;107573;1254;109345;-63
2023/10/16 00:26:23;;;;;;;1.70;0.70;;;;;;;8.25;80.53;100823.25;107637;1251;108369;-62
2023/10/16 00:31:42;;;;;;;3.90;0.80;;;;;;;8.27;80.99;100827.63;107619;1256;97912;-60
2023/10/16 00:34:19;;;;;;;3.30;0.60;;;;;;;8.33;80.89;100825.38;107622;1254;110990;-62
2023/10/16 00:36:55;;;;;;;3.40;0.50;;;;;;;8.37;80.80;100825.08;107603;1254;109378;-61
2023/10/16 00:39:28;;;;;;;8.20;0.70;;;;;;;8.44;80.89;100826.80;107425;1253;107807;-62
2023/10/16 00:41:58;;;;;;;1.00;0.50;;;;;;;8.51;80.98;100824.73;107580;1251;97849;-63
2023/10/16 00:44:33;;;;;;;2.00;0.70;;;;;;;8.57;81.14;100820.85;107602;1253;97704;-62
2023/10/16 00:47:04;;;;;;;2.20;0.90;;;;;;;8.64;80.97;100822.83;107624;1251;111914;-62
2023/10/16 00:49:34;;;;;;;1.20;0.70;;;;;;;8.69;80.85;100816.16;107585;1255;109016;-61
2023/10/16 00:52:05;;;;;;;2.00;0.70;;;;;;;8.71;80.70;100818.66;107573;1251;108506;-62
2023/10/16 00:54:39;;;;;;;3.40;0.80;;;;;;;8.73;80.61;100820.77;107613;1253;97855;-61
2023/10/16 00:57:12;;;;;;;1.10;0.70;;;;;;;8.76;80.49;100818.09;107547;1254;97865;-62
2023/10/16 00:59:41;;;;;;;5.10;0.90;;;;;;;8.75;80.50;100812.08;107626;1254;112100;-61
2023/10/16 01:02:15;;;;;;;2.40;0.60;;;;;;;8.78;80.65;100813.45;107601;1254;109230;-61
2023/10/16 01:04:46;;;;;;;3.70;0.90;;;;;;;8.80;80.57;100819.02;107624;1253;107790;-62
2023/10/16 01:07:15;;;;;;;2.60;0.80;;;;;;;8.82;80.33;100821.23;107460;1254;97943;-62
2023/10/16 01:09:46;;;;;;;2.50;0.70;;;;;;;8.80;80.18;100819.20;107614;1256;99750;-61
2023/10/16 01:12:20;;;;;;;2.00;0.70;;;;;;;8.78;80.02;100820.27;107634;1251;110514;-61
2023/10/16 01:14:49;;;;;;;3.00;0.80;;;;;;;8.82;80.43;100818.33;107648;1253;109769;-61
2023/10/16 01:17:29;;;;;;;3.30;0.70;;;;;;;8.84;80.51;100820.10;107582;1251;108290;-61
2023/10/16 01:19:59;;;;;;;2.20;0.80;;;;;;;8.86;80.52;100823.38;107569;1254;97808;-62
2023/10/16 01:22:29;;;;;;;2.50;1.00;;;;;;;8.87;80.40;100816.70;107591;1254;97886;-63
2023/10/16 01:25:01;;;;;;;3.60;0.80;;;;;;;8.89;80.56;100807.05;107613;1252;111838;-62
2023/10/16 01:27:30;;;;;;;1.90;0.90;;;;;;;8.92;80.64;100803.71;107609;1251;109558;-61
2023/10/16 01:30:02;;;;;;;2.20;0.70;;;;;;;8.92;80.53;100799.96;107561;1251;107386;-61
2023/10/16 01:32:31;;;;;;;0.90;0.50;;;;;;;8.93;80.56;100809.38;107560;1251;97986;-62
2023/10/16 01:35:01;;;;;;;2.90;0.80;;;;;;;8.90;80.82;100818.41;107596;1255;97922;-61
2023/10/16 01:37:30;;;;;;;4.40;1.20;;;;;;;8.83;80.44;100821.80;107582;1251;112200;-61
2023/10/16 01:42:43;;;;;;;0.80;0.70;;;;;;;8.81;80.30;100835.42;107548;1251;108089;-61
2023/10/16 01:45:14;;;;;;;2.70;0.90;;;;;;;8.73;79.90;100832.26;107521;1256;97852;-61
2023/10/16 01:47:43;;;;;;;2.00;0.50;;;;;;;8.69;79.96;100830.43;107638;1253;98335;-62
2023/10/16 01:50:21;;;;;;;3.20;1.00;;;;;;;8.69;80.17;100828.67;107580;1253;111530;-62
2023/10/16 01:52:50;;;;;;;1.70;0.80;;;;;;;8.63;79.90;100830.56;107582;1253;109640;-62
2023/10/16 01:55:19;;;;;;;3.30;0.70;;;;;;;8.65;80.31;100820.91;107551;1253;107189;-61
2023/10/16 01:57:50;;;;;;;1.50;1.00;;;;;;;8.66;80.58;100832.84;107559;1253;97988;-62
2023/10/16 02:00:26;;;;;;;3.30;0.70;;;;;;;8.65;80.89;100850.25;107699;1254;98414;-64
2023/10/16 02:02:54;;;;;;;3.10;0.80;;;;;;;8.54;80.49;100850.78;107603;1251;110856;-65
2023/10/16 02:05:23;;;;;;;1.40;0.60;;;;;;;8.42;80.73;100855.38;107642;1251;109974;-61
2023/10/16 02:07:56;;;;;;;1.50;0.70;;;;;;;8.33;80.71;100849.52;107582;1251;108224;-61
2023/10/16 02:10:24;;;;;;;2.40;0.80;;;;;;;8.30;81.24;100848.29;107543;1251;97816;-61
2023/10/16 02:12:53;;;;;;;1.30;0.70;;;;;;;8.23;81.17;100846.48;107595;1251;97727;-61
2023/10/16 02:15:22;;;;;;;2.80;0.90;;;;;;;8.18;81.29;100853.17;107623;1253;111088;-61
2023/10/16 02:17:51;;;;;;;2.10;0.90;;;;;;;8.08;80.97;100868.00;107633;1255;109839;-61
2023/10/16 02:20:19;;;;;;;3.40;0.80;;;;;;;7.99;80.62;100865.13;107600;1253;107803;-61
2023/10/16 02:22:48;;;;;;;2.40;0.70;;;;;;;7.95;81.18;100854.14;107581;1254;97811;-62
2023/10/16 02:25:18;;;;;;;2.20;0.80;;;;;;;7.93;81.30;100851.12;107559;1256;97762;-62
2023/10/16 02:27:50;;;;;;;2.10;0.80;;;;;;;7.91;81.01;100863.95;107574;1254;111570;-60
2023/10/16 02:33:10;;;;;;;3.90;1.20;;;;;;;7.96;81.03;100867.14;107534;1251;107555;-61
2023/10/16 02:35:42;;;;;;;1.20;0.90;;;;;;;8.00;81.08;100862.55;107547;1253;97811;-62
2023/10/16 02:38:23;;;;;;;4.80;1.80;;;;;;;8.02;80.30;100874.56;107644;1253;97852;-60
2023/10/16 02:40:53;;;;;;;3.60;1.80;;;;;;;7.96;79.81;100888.20;107578;1253;110834;-61
2023/10/16 02:43:22;;;;;;;5.30;1.90;;;;;;;7.89;79.41;100889.13;107586;1253;109814;-61
2023/10/16 02:45:52;;;;;;;2.40;1.40;;;;;;;7.82;79.38;100888.70;107615;1256;106382;-62
2023/10/16 02:48:23;;;;;;;4.10;1.50;;;;;;;7.84;79.59;100888.91;107569;1251;97846;-60
2023/10/16 02:50:54;;;;;;;4.60;1.60;;;;;;;7.82;79.60;100884.40;107628;1251;97941;-61
2023/10/16 02:53:28;;;;;;;3.30;1.20;;;;;;;7.79;79.46;100882.86;107605;1253;112009;-61
2023/10/16 02:58:42;;;;;;;5.20;1.20;;;;;;;7.83;79.96;100893.09;107620;1253;107913;-61
2023/10/16 03:01:15;;;;;;;3.90;1.40;;;;;;;7.80;79.81;100896.36;107591;1256;97832;-62
2023/10/16 03:03:46;;;;;;;4.40;1.20;;;;;;;7.82;79.98;100905.31;107567;1251;97733;-60
2023/10/16 03:06:16;;;;;;;4.50;1.10;;;;;;;7.84;80.04;100915.52;107539;1256;112065;-61
2023/10/16 03:08:51;;;;;;;7.50;1.60;;;;;;;7.90;80.30;100917.78;107608;1253;109090;-62
2023/10/16 03:11:20;;;;;;;7.70;2.10;;;;;;;7.90;79.94;100920.45;107547;1253;107844;-62
2023/10/16 03:13:56;;;;;;;4.40;2.60;;;;;;;7.85;79.86;100928.12;107558;1253;97948;-61
2023/10/16 03:16:26;;;;;;;5.40;3.30;;;;;;;7.82;79.92;100924.09;107584;1252;98543;-60
2023/10/16 03:19:09;;;;;;;2.30;1.60;;;;;;;7.80;79.77;100923.14;107609;1253;110636;-61
2023/10/16 03:21:39;;;;;;;5.70;1.80;;;;;;;7.77;80.07;100922.64;107605;1252;108912;-62
2023/10/16 03:24:09;;;;;;;2.60;1.20;;;;;;;7.67;79.98;100916.05;107543;1253;107861;-61
2023/10/16 03:26:42;;;;;;;5.90;1.50;;;;;;;7.56;79.83;100920.64;107530;1253;98032;-61
2023/10/16 03:29:10;;;;;;;7.60;1.60;;;;;;;7.42;80.31;100924.11;107601;1252;97818;-63
2023/10/16 03:31:39;;;;;;;15.70;7.30;;;;;;;7.28;80.59;100927.11;107595;1253;111861;-63
2023/10/16 03:34:11;;;;;;;4.70;1.80;;;;;;;7.25;81.31;100930.35;107518;1253;109461;-61
2023/10/16 03:36:41;;;;;;;8.00;2.00;;;;;;;7.15;81.06;100936.77;107477;1254;108645;-61
2023/10/16 03:39:17;;;;;;;5.20;1.70;;;;;;;7.07;81.11;100941.58;107598;1253;97835;-62
2023/10/16 03:41:48;;;;;;;3.50;1.30;;;;;;;7.05;81.36;100937.50;107585;1251;98438;-61
2023/10/16 03:44:18;;;;;;;5.10;1.10;;;;;;;7.06;81.62;100934.23;107522;1251;111755;-61
2023/10/16 03:46:47;;;;;;;3.50;1.00;;;;;;;7.04;81.39;100934.68;107565;1252;108903;-62
2023/10/16 03:49:15;;;;;;;6.50;1.30;;;;;;;7.02;81.32;100931.41;107575;1251;108073;-62
2023/10/16 03:51:48;;;;;;;3.00;1.10;;;;;;;6.99;81.66;100938.10;107538;1253;97784;-61
2023/10/16 03:54:23;;;;;;;2.00;0.80;;;;;;;6.99;81.89;100940.77;107628;1251;97719;-62
2023/10/16 03:56:53;;;;;;;2.10;1.20;;;;;;;6.97;81.96;100944.08;107588;1253;111784;-62
2023/10/16 03:59:22;;;;;;;5.10;1.80;;;;;;;6.97;81.79;100940.91;107649;1251;109888;-62
2023/10/16 04:01:50;;;;;;;4.50;1.40;;;;;;;6.95;81.80;100941.79;107596;1251;107879;-62
2023/10/16 04:04:20;;;;;;;5.20;1.50;;;;;;;6.94;81.95;100942.38;107563;1253;97850;-62
2023/10/16 04:06:48;;;;;;;6.50;1.30;;;;;;;6.93;82.13;100942.42;107581;1251;99991;-62
2023/10/16 04:09:17;;;;;;;5.00;1.30;;;;;;;6.89;81.89;100944.27;107612;1255;111961;-62
2023/10/16 04:11:54;;;;;;;9.80;3.20;;;;;;;6.88;82.20;100940.59;107603;1255;110144;-62
2023/10/16 04:14:44;;;;;;;3.10;1.60;;;;;;;6.88;82.33;100943.10;107611;1253;108508;-62
2023/10/16 04:17:11;;;;;;;6.00;1.80;;;;;;;6.89;82.10;100938.80;107552;1251;97921;-61
2023/10/16 04:19:59;;;;;;;8.70;1.40;;;;;;;6.92;82.30;100945.52;107572;1253;97708;-62
2023/10/16 04:22:43;;;;;;;5.70;1.30;;;;;;;6.96;81.93;100954.19;107572;1253;112051;-61
2023/10/16 04:25:18;;;;;;;4.50;1.30;;;;;;;6.97;81.77;100962.50;107587;1251;110884;-61
2023/10/16 04:27:49;;;;;;;5.70;1.70;;;;;;;7.03;81.78;100965.61;107599;1252;108253;-62
2023/10/16 04:46:23;;;;;;;8.00;2.50;;;;;;;6.90;81.21;101009.70;107591;1253;97798;-61
2023/10/16 04:48:52;;;;;;;8.40;1.60;;;;;;;6.88;81.11;101000.52;107642;1253;111144;-62
2023/10/16 04:51:26;;;;;;;4.70;1.50;;;;;;;6.86;81.62;101001.56;107578;1253;109998;-63
2023/10/16 04:54:13;;;;;;;6.10;1.90;;;;;;;6.84;81.48;100999.73;107530;1251;108327;-62
2023/10/16 04:59:58;;;;;;;8.00;1.80;;;;;;;6.88;81.55;100994.66;107561;1251;97822;-63
2023/10/16 05:02:41;;;;;;;6.20;1.80;;;;;;;6.92;81.33;100997.77;107559;1251;112253;-62
2023/10/16 05:11:22;;;;;;;5.90;2.10;;;;;;;6.95;81.19;100995.98;107229;1251;98081;-62
2023/10/16 05:13:43;;;;;;;3.20;1.40;;;;;;;7.03;81.21;100995.02;107561;1253;97823;-63
2023/10/16 05:19:01;;;;;;;3.00;2.30;;;;;;;7.21;81.13;100994.02;107595;1255;110706;-62
2023/10/16 06:14:35;;;;;;;8.30;2.10;;;;;;;7.73;78.89;101096.14;107632;1252;109926;-62
2023/10/16 06:17:13;;;;;;;7.80;2.10;;;;;;;7.78;78.60;101101.68;107588;1255;108658;-62
2023/10/16 06:19:42;;;;;;;9.20;2.50;;;;;;;7.89;78.85;101100.86;107569;1251;97906;-62
2023/10/16 06:22:12;;;;;;;18.20;2.30;;;;;;;8.00;78.31;101105.26;107560;1253;98374;-62
2023/10/16 06:24:47;;;;;;;8.60;2.00;;;;;;;8.04;78.07;101111.94;107592;1251;112435;-62
2023/10/16 06:27:20;;;;;;;10.20;2.60;;;;;;;8.12;77.91;101119.42;107587;1255;112060;-63
2023/10/16 06:29:50;;;;;;;10.40;2.50;;;;;;;8.10;76.26;101121.86;107582;1251;106918;-63
2023/10/16 06:32:25;;;;;;;7.80;2.20;;;;;;;8.07;76.42;101122.64;107585;1253;97831;-63
2023/10/16 06:34:57;;;;;;;8.20;2.10;;;;;;;8.04;76.25;101127.09;107600;1252;98342;-62
2023/10/16 06:37:31;;;;;;;7.70;2.40;;;;;;;8.09;76.59;101132.89;107598;1251;112639;-62
2023/10/16 06:40:05;;;;;;;7.50;1.90;;;;;;;8.20;75.91;101134.55;107580;1253;109583;-62
2023/10/16 06:42:33;;;;;;;7.60;2.10;;;;;;;8.29;75.60;101135.36;107592;1251;108243;-62
2023/10/16 06:45:07;;;;;;;11.30;2.70;;;;;;;8.40;74.65;101136.89;107587;1253;97847;-63
2023/10/16 06:47:36;;;;;;;7.20;2.30;;;;;;;8.45;74.16;101135.77;107636;1251;97848;-62
2023/10/16 06:52:55;;;;;;;8.10;2.20;;;;;;;8.47;73.57;101148.54;107581;1253;109118;-62
2023/10/16 06:55:24;;;;;;;12.50;2.30;;;;;;;8.45;72.93;101156.88;107531;1251;108062;-61
2023/10/16 06:57:52;;;;;;;7.70;2.40;;;;;;;8.46;73.55;101159.11;107505;1253;97883;-61
2023/10/16 07:02:56;;;;;;;15.80;3.10;;;;;;;8.58;72.97;101168.27;107556;1251;111308;-62
2023/10/16 07:05:42;;;;;;;11.40;3.00;;;;;;;8.72;73.24;101171.21;107569;1252;109043;-61
2023/10/16 07:08:19;;;;;;;8.20;2.20;;;;;;;8.88;73.25;101175.06;107571;1251;107938;-62
2023/10/16 07:10:49;;;;;;;11.20;2.70;;;;;;;8.93;71.40;101176.60;107590;1253;97858;-61
2023/10/16 07:13:29;;;;;;;8.20;2.40;;;;;;;8.87;70.92;101183.70;107628;1253;98415;-62
2023/10/16 07:16:00;;;;;;;11.10;3.40;;;;;;;8.84;70.57;101181.76;107540;1251;112256;-62
2023/10/16 07:18:35;;;;;;;11.40;2.90;;;;;;;8.86;70.36;101177.64;107574;1251;109980;-63
2023/10/16 07:23:37;;;;;;;8.70;2.10;;;;;;;9.02;70.21;101178.62;107543;1251;97830;-61
2023/10/16 07:26:09;;;;;;;12.50;2.70;;;;;;;9.14;70.13;101182.20;107576;1252;97819;-61
2023/10/16 07:28:39;;;;;;;15.10;2.60;;;;;;;9.25;69.63;101172.05;107583;1253;111480;-62
2023/10/16 07:31:10;;;;;;;10.30;2.50;;;;;;;9.29;68.55;101177.68;107622;1251;109283;-60
2023/10/16 07:33:41;;;;;;;12.40;3.00;;;;;;;9.29;68.19;101169.42;107578;1253;108159;-60
2023/10/16 07:36:13;;;;;;;10.30;3.60;;;;;;;9.39;68.27;101171.55;107567;1253;97929;-60
2023/10/16 07:38:41;;;;;;;10.30;2.30;;;;;;;9.51;68.19;101175.65;107597;1253;97726;-62
2023/10/16 07:41:13;;;;;;;8.50;2.70;;;;;;;9.58;66.94;101179.73;107565;1251;112889;-61
2023/10/16 07:43:46;;;;;;;13.30;2.40;;;;;;;9.60;65.76;101179.45;107620;1253;109920;-62
2023/10/16 07:46:28;;;;;;;9.10;2.00;;;;;;;9.61;64.67;101177.92;107579;1253;107706;-60
2023/10/16 07:49:09;;;;;;;6.30;1.90;;;;;;;9.65;64.77;101175.40;107581;1251;97868;-61
2023/10/16 07:51:45;;;;;;;9.90;2.30;;;;;;;9.67;63.83;101175.08;107608;1253;97907;-60
2023/10/16 07:54:14;;;;;;;8.00;2.50;;;;;;;9.76;63.12;101184.28;107571;1255;110842;-59
2023/10/16 07:56:42;;;;;;;9.40;1.90;;;;;;;9.87;63.09;101188.08;107550;1252;109775;-61
2023/10/16 07:59:11;;;;;;;7.90;2.30;;;;;;;10.01;63.05;101184.63;107499;1254;108644;-62
2023/10/16 08:01:57;;;;;;;15.40;2.50;;;;;;;10.17;62.99;101194.30;107539;1251;97909;-62
2023/10/16 08:06:57;;;;;;;10.00;3.10;;;;;;;10.57;60.42;101197.38;107645;1255;112412;-62
2023/10/16 08:11:58;;;;;;;9.00;3.00;;;;;;;10.63;57.14;101210.02;107579;1252;108304;-61
2023/10/16 08:14:31;;;;;;;7.60;2.40;;;;;;;10.59;57.46;101217.09;107582;1252;97849;-61
2023/10/16 08:17:05;;;;;;;8.50;2.40;;;;;;;10.70;56.91;101218.37;107622;1251;97710;-61
2023/10/16 08:19:34;;;;;;;10.20;2.10;;;;;;;10.81;57.47;101208.16;107653;1253;111058;-61
2023/10/16 08:22:07;;;;;;;5.40;1.80;;;;;;;11.03;57.29;101220.88;107602;1255;109119;-61
2023/10/16 08:24:43;;;;;;;4.20;1.90;;;;;;;11.09;55.82;101218.59;107430;1253;107342;-61
2023/10/16 08:27:40;;;;;;;7.50;2.10;;;;;;;11.25;55.20;101217.97;107567;1251;97822;-60
2023/10/16 08:31:22;;;;;;;9.00;2.10;;;;;;;11.52;54.63;101215.14;107644;1253;97774;-62
2023/10/16 08:33:09;;;;;;;7.50;2.20;;;;;;;11.60;53.86;101220.20;107483;1253;111563;-63
2023/10/16 08:35:38;;;;;;;6.70;1.50;;;;;;;11.62;53.16;101222.75;107622;1253;109349;-61
2023/10/16 08:38:25;;;;;;;6.50;1.90;;;;;;;11.88;53.34;101225.36;107546;1251;108331;-62
2023/10/16 08:41:05;;;;;;;6.20;1.60;;;;;;;12.11;52.36;101223.39;107613;1253;97820;-61
2023/10/16 08:44:14;;;;;;;4.50;1.70;;;;;;;12.10;50.13;101239.90;107617;1253;98339;-60
2023/10/16 08:46:31;;;;;;;8.20;1.60;;;;;;;11.91;49.65;101239.88;107541;1253;112474;-62
2023/10/16 08:49:02;;;;;;;13.20;1.90;;;;;;;11.97;50.71;101252.69;107593;1252;108805;-62
2023/10/16 08:51:31;;;;;;;12.00;2.30;;;;;;;12.02;51.36;101254.16;107604;1252;108832;-60
2023/10/16 08:54:02;;;;;;;8.60;1.70;;;;;;;12.16;50.34;101260.74;107584;1252;97926;-62
2023/10/16 08:56:31;;;;;;;8.20;1.90;;;;;;;12.20;49.31;101266.83;107583;1251;97934;-60
2023/10/16 08:59:01;;;;;;;4.70;1.50;;;;;;;12.24;49.51;101271.88;107561;1251;112197;-61
2023/10/16 09:01:32;;;;;;;4.90;1.40;;;;;;;12.24;50.30;101269.94;107610;1254;109303;-62
2023/10/16 09:04:10;;;;;;;8.20;1.70;;;;;;;12.25;49.63;101263.52;107549;1251;108323;-61
2023/10/16 09:06:38;;;;;;;7.40;1.00;;;;;;;12.20;48.04;101269.36;107536;1251;97832;-61
2023/10/16 09:09:13;;;;;;;3.40;1.50;;;;;;;12.12;47.64;101273.89;107535;1251;97861;-62
2023/10/16 09:11:45;;;;;;;7.60;1.10;;;;;;;12.81;46.38;101261.11;107553;1254;110715;-62
2023/10/16 09:14:20;;;;;;;21.80;2.10;;;;;;;13.10;45.38;101263.16;107587;1254;110039;-62
2023/10/16 09:16:55;;;;;;;5.60;1.70;;;;;;;13.15;45.69;101282.00;107516;1256;108435;-61
2023/10/16 09:19:34;;;;;;;5.60;2.20;;;;;;;13.81;44.42;101281.52;107525;1254;98515;-61
2023/10/16 09:22:08;;;;;;;6.20;1.40;;;;;;;15.07;43.14;101275.50;107575;1253;99533;-62
2023/10/16 09:24:38;;;;;;;5.50;1.50;;;;;;;15.98;40.82;101276.75;107528;1251;111306;-61
2023/10/16 09:27:30;;;;;;;9.70;1.70;;;;;;;15.49;39.79;101285.60;107572;1253;109223;-61
2023/10/16 09:30:01;;;;;;;7.60;1.70;;;;;;;15.03;39.32;101288.64;107500;1254;107979;-61
2023/10/16 09:32:39;;;;;;;4.20;1.30;;;;;;;15.32;39.83;101286.44;107552;1251;97842;-60
2023/10/16 09:35:13;;;;;;;8.90;2.30;;;;;;;15.31;39.94;101287.27;107571;1254;97831;-62
2023/10/16 09:37:47;;;;;;;6.60;1.90;;;;;;;15.94;37.78;101292.53;107581;1254;111619;-61
2023/10/16 09:43:09;;;;;;;6.50;2.20;;;;;;;16.51;37.69;101286.34;107588;1253;107126;-61
2023/10/16 09:45:38;;;;;;;8.70;1.80;;;;;;;15.81;37.66;101290.88;107556;1254;97827;-61
2023/10/16 09:48:08;;;;;;;4.50;1.50;;;;;;;15.19;39.34;101293.15;107535;1254;97710;-60
2023/10/16 09:50:38;;;;;;;7.10;1.20;;;;;;;15.10;39.69;101298.00;107553;1253;110657;-62
2023/10/16 09:53:07;;;;;;;4.70;1.50;;;;;;;16.37;40.64;101289.81;107589;1254;107239;-62
2023/10/16 09:55:44;;;;;;;7.60;1.80;;;;;;;16.58;38.53;101292.31;107563;1252;106350;-63
2023/10/16 09:58:13;;;;;;;2.50;1.40;;;;;;;15.72;37.62;101293.66;107517;1251;97928;-62
2023/10/16 10:00:46;;;;;;;6.00;2.40;;;;;;;15.45;38.59;101298.19;107618;1255;97898;-64
2023/10/16 10:03:17;;;;;;;;;;;;;;;15.37;38.42;101299.33;107662;1251;111342;-61
2023/10/16 10:06:08;;;;;;;7.00;1.30;;;;;;;15.00;39.15;101298.08;107579;1255;109107;-62
2023/10/16 10:12:23;;;;;;;3.90;1.00;;;;;;;14.31;40.19;101305.09;107220;1253;418695;-62
2023/10/16 10:15:03;;;;;;;4.50;1.60;;;;;;;14.08;39.83;101304.29;107458;1250;97864;-61
2023/10/16 10:17:25;;;;;;;3.90;1.40;;;;;;;14.74;38.75;101303.92;107613;1251;111237;-63
2023/10/16 10:19:55;;;;;;;7.20;1.20;;;;;;;14.55;38.55;101295.58;107656;1251;110950;-63
2023/10/16 10:22:35;;;;;;;14.30;2.70;;;;;;;15.14;38.55;101285.81;107552;1254;108189;-62
2023/10/16 10:25:22;;;;;;;7.20;1.80;;;;;;;15.82;39.72;101281.40;107559;1252;97820;-62
2023/10/16 10:27:54;;;;;;;10.80;1.60;;;;;;;17.17;37.01;101279.77;107558;1254;97713;-62
2023/10/16 10:30:27;;;;;;;5.50;1.60;;;;;;;17.39;36.53;101282.46;107567;1251;111594;-62
2023/10/16 10:32:59;;;;;;;13.20;2.20;;;;;;;18.18;34.61;101280.11;107618;1253;109640;-62
2023/10/16 10:35:29;;;;;;;5.00;1.40;;;;;;;18.61;33.78;101281.43;107578;1253;108534;-62
2023/10/16 10:38:17;;;;;;;3.50;1.80;;;;;;;18.71;34.24;101281.48;107537;1254;97864;-63
2023/10/16 10:41:04;;;;;;;3.40;1.10;;;;;;;19.38;33.31;101285.45;107544;1251;98354;-62
2023/10/16 10:44:03;;;;;;;3.30;1.30;;;;;;;20.02;32.47;101281.11;107582;1254;111767;-63
2023/10/16 10:46:34;;;;;;;5.70;1.80;;;;;;;19.78;31.46;101277.20;107589;1254;109659;-62
2023/10/16 10:49:03;;;;;;;4.30;1.40;;;;;;;20.30;30.61;101291.38;107596;1254;108566;-62
2023/10/16 10:51:35;;;;;;;3.90;1.40;;;;;;;20.62;29.18;101283.69;107593;1254;97822;-62
2023/10/16 10:54:06;;;;;;;5.00;1.40;;;;;;;21.05;28.94;101285.66;107604;1254;97847;-62
2023/10/16 10:56:42;;;;;;;2.40;1.10;;;;;;;21.47;28.90;101277.14;107532;1253;111142;-63
2023/10/16 10:59:10;;;;;;;7.30;1.30;;;;;;;22.24;29.36;101278.26;107570;1253;109972;-62
2023/10/16 11:02:09;;;;;;;10.60;1.80;;;;;;;22.89;28.03;101277.19;107498;1255;108302;-62
2023/10/16 11:04:33;;;;;;;5.10;1.40;;;;;;;23.16;27.21;101285.27;107654;1251;97957;-63
2023/10/16 11:07:23;;;;;;;4.10;1.10;;;;;;;23.10;25.80;101285.20;107599;1253;97846;-61
2023/10/16 11:09:52;;;;;;;3.00;1.20;;;;;;;22.11;24.30;101291.67;107545;1252;112440;-62
2023/10/16 11:12:24;;;;;;;3.90;1.10;;;;;;;21.44;25.53;101279.08;107598;1253;109693;-63
2023/10/16 11:14:54;;;;;;;2.10;1.00;;;;;;;20.70;25.60;101296.69;107560;1251;108250;-62
2023/10/16 11:17:37;;;;;;;3.50;1.30;;;;;;;19.65;26.99;101292.55;107561;1251;97942;-61
2023/10/16 11:22:47;;;;;;;1.80;0.80;;;;;;;20.34;27.51;101262.55;107477;1253;110571;-62
2023/10/16 11:25:16;;;;;;;3.40;1.30;;;;;;;20.52;26.16;101263.19;107562;1253;109749;-62
2023/10/16 11:27:45;;;;;;;5.90;1.30;;;;;;;20.56;26.34;101260.73;107488;1253;108255;-62
2023/10/16 11:30:14;;;;;;;3.20;0.90;;;;;;;20.49;25.72;101260.86;107546;1252;97971;-61
2023/10/16 11:32:46;;;;;;;2.60;1.20;;;;;;;20.36;26.53;101262.79;107641;1253;97827;-62
2023/10/16 11:35:15;;;;;;;3.40;1.00;;;;;;;20.33;26.34;101265.02;107537;1255;111154;-62
2023/10/16 11:37:59;;;;;;;5.20;1.20;;;;;;;20.24;26.95;101258.64;107636;1251;107637;-62
2023/10/16 11:40:39;;;;;;;3.30;0.90;;;;;;;20.02;26.85;101262.73;107558;1255;108387;-63
2023/10/16 11:43:11;;;;;;;3.20;0.80;;;;;;;19.79;27.77;101266.95;107535;1253;97791;-61
2023/10/16 11:45:42;;;;;;;9.00;1.10;;;;;;;19.75;28.00;101272.11;107525;1255;97843;-62
2023/10/16 11:50:53;;;;;;;6.10;1.10;;;;;;;19.83;27.94;101267.33;107524;1252;108490;-61
2023/10/16 11:53:28;;;;;;;;;;;;;;;19.58;27.07;101265.39;107472;1253;107674;-61
2023/10/16 11:55:56;;;;;;;2.00;0.80;;;;;;;19.21;28.12;101280.61;107526;1253;97851;-62
2023/10/16 11:58:25;;;;;;;3.50;0.80;;;;;;;19.18;28.74;101281.63;107511;1253;97747;-64
2023/10/16 12:00:54;;;;;;;9.20;0.80;;;;;;;19.18;28.83;101280.97;107561;1253;111920;-63
2023/10/16 12:03:26;;;;;;;1.40;0.80;;;;;;;19.09;29.54;101289.15;107483;1252;109279;-64
2023/10/16 12:05:58;;;;;;;2.40;0.60;;;;;;;19.11;28.56;101287.83;107408;1251;108554;-61
2023/10/16 12:08:26;;;;;;;2.30;0.70;;;;;;;19.08;28.40;101286.95;107530;1254;97841;-62
2023/10/16 12:10:55;;;;;;;2.60;0.60;;;;;;;19.18;28.36;101285.90;107487;1253;97777;-62
2023/10/16 12:13:23;;;;;;;2.70;1.40;;;;;;;19.32;28.54;101288.52;107593;1254;112045;-62
2023/10/16 12:15:52;;;;;;;0.40;0.40;;;;;;;19.38;27.23;101281.17;107528;1253;110970;-62
2023/10/16 12:18:22;;;;;;;4.70;0.70;;;;;;;19.34;27.60;101283.19;107549;1253;108397;-61
2023/10/16 12:20:50;;;;;;;1.00;0.60;;;;;;;19.42;27.44;101281.12;107529;1253;97811;-61
2023/10/16 12:23:23;;;;;;;4.40;0.80;;;;;;;19.48;27.61;101279.38;107567;1251;97833;-62
2023/10/16 12:25:52;;;;;;;2.00;0.70;;;;;;;19.78;27.37;101274.65;107586;1253;111302;-62
2023/10/16 12:28:20;;;;;;;5.60;0.60;;;;;;;20.05;27.26;101279.29;107526;1253;110579;-62
2023/10/16 12:30:49;;;;;;;1.70;0.70;;;;;;;20.46;27.61;101283.40;107555;1253;107772;-62
2023/10/16 12:33:17;;;;;;;4.50;0.60;;;;;;;21.07;27.22;101284.33;107569;1253;97819;-62
2023/10/16 12:35:47;;;;;;;2.30;0.80;;;;;;;21.69;26.50;101288.16;107539;1252;97930;-63
2023/10/16 12:38:15;;;;;;;1.70;0.70;;;;;;;22.24;26.65;101290.31;107554;1253;111900;-62
2023/10/16 12:40:43;;;;;;;5.30;0.90;;;;;;;22.89;26.33;101291.07;107525;1253;109912;-61
2023/10/16 12:43:11;;;;;;;1.00;0.50;;;;;;;23.13;24.19;101288.20;107534;1252;108118;-63
2023/10/16 12:45:40;;;;;;;4.60;0.80;;;;;;;23.27;24.50;101292.89;107563;1253;97823;-63
2023/10/16 12:48:09;;;;;;;1.70;0.60;;;;;;;23.72;24.41;101290.88;107524;1253;97719;-61
2023/10/16 12:50:37;;;;;;;2.50;0.70;;;;;;;23.92;23.61;101294.00;107544;1253;111376;-61
2023/10/16 12:53:06;;;;;;;1.80;0.60;;;;;;;24.41;24.15;101287.34;107505;1253;109323;-62
2023/10/16 12:55:35;;;;;;;3.50;0.70;;;;;;;24.82;22.16;101283.66;107524;1252;108524;-66
2023/10/16 12:58:05;;;;;;;2.30;0.90;;;;;;;24.70;22.06;101291.75;107551;1253;97749;-62
2023/10/16 13:00:38;;;;;;;1.30;0.50;;;;;;;24.77;22.06;101286.09;107562;1252;98476;-61
2023/10/16 13:03:13;;;;;;;1.50;0.70;;;;;;;25.28;21.33;101282.81;107547;1253;111275;-61
2023/10/16 13:05:42;;;;;;;4.80;0.60;;;;;;;25.82;21.42;101282.88;107558;1253;109730;-62
2023/10/16 13:08:11;;;;;;;4.50;1.10;;;;;;;26.18;20.20;101286.59;107540;1253;107663;-62
2023/10/16 13:10:40;;;;;;;3.90;0.90;;;;;;;25.49;19.41;101293.17;107560;1253;97852;-62
2023/10/16 13:13:09;;;;;;;2.20;0.90;;;;;;;25.25;20.91;101283.81;107526;1253;98431;-62
2023/10/16 13:15:38;;;;;;;4.30;0.60;;;;;;;25.69;20.58;101284.02;107531;1253;111956;-61
2023/10/16 13:18:11;;;;;;;1.00;0.40;;;;;;;26.24;20.08;101286.70;107546;1255;110047;-61
2023/10/16 13:20:40;;;;;;;;;;;;;;;25.93;20.10;101286.64;107615;1251;109501;-62
2023/10/16 13:23:08;;;;;;;1.20;0.40;;;;;;;25.29;20.16;101290.52;107498;1253;97853;-61
2023/10/16 13:25:36;;;;;;;5.80;0.80;;;;;;;24.73;20.95;101297.33;107613;1251;97764;-62
2023/10/16 13:28:07;;;;;;;2.80;0.70;;;;;;;23.74;21.82;101302.91;107533;1255;112124;-62
2023/10/16 13:30:36;;;;;;;1.40;0.50;;;;;;;24.33;21.76;101303.24;107547;1253;109787;-62
2023/10/16 13:33:09;;;;;;;4.40;1.70;;;;;;;25.22;21.28;101301.06;107532;1253;108692;-61
2023/10/16 13:35:41;;;;;;;5.60;0.90;;;;;;;25.99;19.87;101300.88;107559;1252;97873;-62
2023/10/16 13:38:10;;;;;;;1.30;0.60;;;;;;;26.30;19.33;101302.84;107560;1251;98373;-63